Time;durP1;ratioP1;P1;durP2;ratioP2;P2;SDS_P1;SDS_P2;PMS_P1;PMS_P2;Temp;Humidity;BMP_temperature;BMP_pressure;BME280_temperature;BME280_humidity;BME280_pressure;Samples;Min_cycle;Max_cycle;Signal;HPM_P1;HPM_P2
2022/10/07 00:00:15;;;;;;;3.03;2.67;;;14.20;99.90;;;;;;5012934;28;20176;-68
2022/10/07 00:02:41;;;;;;;1.50;1.50;;;14.20;99.90;;;;;;5013317;28;20179;-70
2022/10/07 00:05:07;;;;;;;2.93;2.73;;;14.10;99.90;;;;;;5013184;28;20204;-69
2022/10/07 00:07:32;;;;;;;2.10;0.83;;;14.20;99.90;;;;;;5015940;28;20206;-68
2022/10/07 00:09:58;;;;;;;1.57;1.47;;;14.20;99.90;;;;;;5016370;28;20272;-71
2022/10/07 00:12:24;;;;;;;0.50;0.50;;;14.20;99.90;;;;;;5016674;28;20270;-69
2022/10/07 00:14:49;;;;;;;1.33;1.03;;;14.20;99.90;;;;;;5016547;28;20226;-69
2022/10/07 00:17:15;;;;;;;1.37;1.30;;;14.30;99.90;;;;;;5016272;28;20808;-70
2022/10/07 00:19:41;;;;;;;2.83;1.13;;;14.30;99.90;;;;;;5016387;28;20180;-69
2022/10/07 00:22:07;;;;;;;1.27;1.27;;;14.30;99.90;;;;;;5016387;28;20186;-71
2022/10/07 00:24:32;;;;;;;0.70;0.70;;;14.30;99.90;;;;;;5016388;28;20403;-68
2022/10/07 00:26:58;;;;;;;0.83;0.83;;;14.30;99.90;;;;;;5016116;28;20191;-71
2022/10/07 00:29:24;;;;;;;1.73;1.63;;;14.40;99.90;;;;;;5015981;28;20250;-69
2022/10/07 00:31:49;;;;;;;1.43;1.33;;;14.40;99.90;;;;;;5016093;28;20246;-70
2022/10/07 00:34:15;;;;;;;1.37;1.27;;;14.40;99.90;;;;;;5016271;28;20184;-69
2022/10/07 00:36:42;;;;;;;1.30;1.20;;;14.30;99.90;;;;;;5016205;28;20222;-68
2022/10/07 00:39:11;;;;;;;1.70;1.57;;;14.40;99.90;;;;;;5015958;28;20168;-71
2022/10/07 00:41:39;;;;;;;2.90;2.60;;;14.40;99.90;;;;;;5016105;28;20407;-70
2022/10/07 00:44:30;;;;;;;1.30;1.23;;;14.40;99.90;;;;;;5016057;28;20468;-70
2022/10/07 00:46:57;;;;;;;1.00;0.93;;;14.40;99.90;;;;;;5015615;28;20461;-68
2022/10/07 00:49:23;;;;;;;2.47;1.87;;;14.40;99.90;;;;;;5015609;28;20462;-70
2022/10/07 00:51:52;;;;;;;1.70;1.57;;;14.40;99.90;;;;;;5015998;28;20875;-71
2022/10/07 00:54:19;;;;;;;1.23;1.10;;;14.40;99.90;;;;;;5015807;28;20425;-71
2022/10/07 00:56:47;;;;;;;4.93;1.90;;;14.40;99.90;;;;;;5015586;28;20434;-68
2022/10/07 00:59:14;;;;;;;2.10;2.00;;;14.50;99.90;;;;;;5015598;28;20561;-71
2022/10/07 01:01:40;;;;;;;2.43;2.23;;;14.40;99.90;;;;;;5015661;28;20418;-69
2022/10/07 01:04:11;;;;;;;2.60;1.13;;;14.40;99.90;;;;;;5014411;28;20885;-69
2022/10/07 01:06:38;;;;;;;1.23;1.10;;;14.50;99.90;;;;;;5015646;28;20429;-70
2022/10/07 01:09:05;;;;;;;1.30;1.30;;;14.40;99.90;;;;;;5015117;28;20469;-69
2022/10/07 01:11:43;;;;;;;2.13;2.03;;;14.40;99.90;;;;;;5015591;28;20403;-71
2022/10/07 01:14:19;;;;;;;1.70;1.60;;;14.40;99.90;;;;;;5015403;28;20419;-68
2022/10/07 01:16:46;;;;;;;1.33;0.90;;;14.40;99.90;;;;;;5014909;28;20436;-70
2022/10/07 01:19:23;;;;;;;1.27;1.27;;;14.40;99.90;;;;;;5015155;28;20828;-71
2022/10/07 01:22:04;;;;;;;2.20;2.10;;;14.40;99.90;;;;;;5015417;28;20406;-71
2022/10/07 01:24:47;;;;;;;11.63;3.53;;;14.40;99.90;;;;;;5015361;28;20404;-68
2022/10/07 01:27:15;;;;;;;1.67;1.53;;;14.30;99.90;;;;;;5015070;28;20448;-69
2022/10/07 01:29:58;;;;;;;1.70;1.33;;;14.30;99.90;;;;;;5014824;28;20453;-68
2022/10/07 01:32:35;;;;;;;1.23;1.13;;;14.30;99.90;;;;;;5015208;28;20395;-69
2022/10/07 01:35:04;;;;;;;1.37;1.27;;;14.40;99.90;;;;;;5013766;28;20985;-70
2022/10/07 01:37:34;;;;;;;1.10;1.10;;;14.40;99.90;;;;;;5014916;28;20421;-71
2022/10/07 01:40:12;;;;;;;1.23;1.13;;;14.40;99.90;;;;;;5014789;28;20769;-70
2022/10/07 01:42:39;;;;;;;0.50;0.50;;;14.40;99.90;;;;;;5014864;28;20798;-70
2022/10/07 01:45:07;;;;;;;2.43;2.33;;;14.30;99.90;;;;;;5014968;28;20414;-71
2022/10/07 01:47:33;;;;;;;0.80;0.80;;;14.30;99.90;;;;;;5014572;28;20466;-71
2022/10/07 01:49:58;;;;;;;1.30;1.17;;;14.30;99.90;;;;;;5014516;28;20996;-68
2022/10/07 01:52:52;;;;;;;3.30;1.60;;;14.40;99.90;;;;;;5014790;28;20172;-69
2022/10/07 01:55:51;;;;;;;2.80;2.43;;;14.50;99.90;;;;;;5014500;28;20686;-69
2022/10/07 01:58:32;;;;;;;0.87;0.87;;;14.60;99.90;;;;;;5015012;28;20767;-71
2022/10/07 02:01:18;;;;;;;1.43;1.33;;;14.60;99.90;;;;;;5014459;28;20497;-70
2022/10/07 02:04:29;;;;;;;1.37;1.27;;;14.70;99.90;;;;;;5014473;28;20417;-67
2022/10/07 02:07:32;;;;;;;1.70;1.60;;;14.70;99.90;;;;;;4998695;28;20457;-69
2022/10/07 02:10:24;;;;;;;1.40;1.03;;;14.70;99.90;;;;;;5014428;28;20499;-70
2022/10/07 02:13:05;;;;;;;0.97;0.97;;;14.60;99.90;;;;;;5014390;28;20409;-71
2022/10/07 02:15:43;;;;;;;1.43;1.37;;;14.70;99.90;;;;;;5014404;28;20784;-69
2022/10/07 02:18:14;;;;;;;6.73;0.97;;;14.70;99.90;;;;;;5014486;28;20489;-71
2022/10/07 02:20:42;;;;;;;2.03;1.37;;;14.60;99.90;;;;;;5012847;28;20415;-68
2022/10/07 02:23:09;;;;;;;1.43;1.33;;;14.60;99.90;;;;;;5014288;28;20444;-70
2022/10/07 02:25:42;;;;;;;1.43;1.03;;;14.70;99.90;;;;;;5014095;28;20490;-69
2022/10/07 02:28:10;;;;;;;6.73;1.23;;;14.70;99.90;;;;;;5013557;28;20450;-67
2022/10/07 02:30:37;;;;;;;1.20;1.10;;;14.70;99.90;;;;;;5013563;28;20415;-68
2022/10/07 02:33:06;;;;;;;0.90;0.90;;;14.70;99.90;;;;;;5014040;28;20409;-70
2022/10/07 02:35:40;;;;;;;6.83;2.07;;;14.80;99.90;;;;;;5013981;28;20423;-71
2022/10/07 02:38:10;;;;;;;0.90;0.90;;;14.80;99.90;;;;;;5014025;28;20395;-69
2022/10/07 02:40:42;;;;;;;1.13;1.10;;;14.70;99.90;;;;;;5013680;28;20454;-70
2022/10/07 02:43:13;;;;;;;0.87;0.87;;;14.60;99.90;;;;;;5014170;28;20408;-70
2022/10/07 02:46:07;;;;;;;1.40;0.73;;;14.70;99.90;;;;;;5013647;28;20436;-71
2022/10/07 02:48:57;;;;;;;1.50;1.07;;;14.70;99.90;;;;;;5013699;28;20509;-69
2022/10/07 02:51:35;;;;;;;2.40;0.67;;;14.70;99.90;;;;;;5014020;28;20414;-69
2022/10/07 02:54:03;;;;;;;1.23;0.97;;;14.70;99.90;;;;;;5014007;28;20411;-71
2022/10/07 02:56:31;;;;;;;4.70;2.47;;;14.80;99.90;;;;;;5013743;28;20424;-71
2022/10/07 02:59:00;;;;;;;2.70;2.07;;;14.80;99.90;;;;;;5013735;28;20406;-70
2022/10/07 03:01:30;;;;;;;0.80;0.80;;;14.80;99.90;;;;;;5013810;28;20765;-69
2022/10/07 03:03:56;;;;;;;3.23;2.90;;;14.80;99.90;;;;;;5013670;28;20417;-69
2022/10/07 03:06:23;;;;;;;2.87;2.57;;;14.80;99.90;;;;;;5013498;28;20469;-70
2022/10/07 03:08:50;;;;;;;1.00;0.90;;;14.80;99.90;;;;;;5013436;28;20442;-68
2022/10/07 03:11:16;;;;;;;2.00;1.80;;;14.80;99.90;;;;;;5013692;28;20493;-67
2022/10/07 03:13:41;;;;;;;4.30;2.70;;;14.70;99.90;;;;;;5013707;28;20939;-69
2022/10/07 03:16:07;;;;;;;2.60;2.40;;;14.70;99.90;;;;;;5013644;28;20561;-69
2022/10/07 03:18:33;;;;;;;1.43;0.97;;;14.60;99.90;;;;;;5013693;28;20183;-71
2022/10/07 03:20:59;;;;;;;1.40;1.20;;;14.50;99.90;;;;;;5013397;28;20654;-69
2022/10/07 03:23:30;;;;;;;2.20;1.40;;;14.40;99.90;;;;;;5013542;28;20813;-69
2022/10/07 03:25:57;;;;;;;1.50;1.40;;;14.30;99.90;;;;;;5013659;28;20794;-68
2022/10/07 03:28:26;;;;;;;2.30;2.10;;;14.20;99.90;;;;;;5013296;28;20503;-71
2022/10/07 03:30:52;;;;;;;1.90;1.80;;;14.10;99.90;;;;;;5013280;28;20510;-68
2022/10/07 03:33:24;;;;;;;1.10;1.10;;;14.10;99.90;;;;;;5013355;28;20496;-69
2022/10/07 03:35:50;;;;;;;2.83;2.63;;;14.10;99.90;;;;;;5013395;28;20444;-69
2022/10/07 03:38:16;;;;;;;3.67;3.23;;;14.30;99.90;;;;;;5013274;28;20426;-68
2022/10/07 03:40:45;;;;;;;2.97;2.77;;;14.40;99.90;;;;;;5015130;28;20176;-68
2022/10/07 03:43:10;;;;;;;2.10;1.90;;;14.40;99.90;;;;;;5017153;28;20407;-71
2022/10/07 03:45:43;;;;;;;1.33;1.23;;;14.50;99.90;;;;;;5016795;28;20485;-70
2022/10/07 03:48:08;;;;;;;1.80;1.47;;;14.60;99.90;;;;;;5017146;28;20197;-68
2022/10/07 03:50:34;;;;;;;1.47;1.37;;;14.60;99.90;;;;;;5017136;28;20406;-68
2022/10/07 03:53:00;;;;;;;1.63;1.53;;;14.60;99.90;;;;;;5017053;28;20175;-70
2022/10/07 03:55:25;;;;;;;1.90;1.77;;;14.70;99.90;;;;;;5016849;28;20214;-70
2022/10/07 03:57:54;;;;;;;1.77;1.43;;;14.70;99.90;;;;;;5016761;28;20179;-70
2022/10/07 04:00:22;;;;;;;2.23;2.03;;;14.70;99.90;;;;;;5016752;28;20650;-69
2022/10/07 04:02:48;;;;;;;2.23;2.07;;;14.80;99.90;;;;;;5016746;28;20775;-68
2022/10/07 04:05:19;;;;;;;3.40;3.07;;;14.70;99.90;;;;;;5016681;28;20441;-71
2022/10/07 04:07:46;;;;;;;1.90;1.80;;;14.80;99.90;;;;;;5016555;28;20410;-71
2022/10/07 04:10:14;;;;;;;4.67;1.90;;;14.80;99.90;;;;;;5016402;28;20436;-71
2022/10/07 04:12:40;;;;;;;2.40;2.10;;;14.80;99.90;;;;;;5016525;28;20903;-70
2022/10/07 04:15:06;;;;;;;5.40;1.50;;;14.50;99.90;;;;;;5015070;28;20399;-69
2022/10/07 04:17:32;;;;;;;2.10;1.90;;;14.70;99.90;;;;;;5016408;28;20402;-70
2022/10/07 04:19:58;;;;;;;9.30;3.47;;;14.80;99.90;;;;;;5014892;28;20912;-69
2022/10/07 04:22:24;;;;;;;2.37;2.17;;;14.80;99.90;;;;;;5015247;28;20179;-70
2022/10/07 04:27:35;;;;;;;2.67;2.47;;;14.70;99.90;;;;;;5016428;28;20374;-69
2022/10/07 04:30:02;;;;;;;2.53;1.70;;;14.80;99.90;;;;;;5016046;28;20460;-70
2022/10/07 04:32:29;;;;;;;2.43;2.33;;;14.90;99.90;;;;;;5016259;28;20859;-70
2022/10/07 04:34:55;;;;;;;2.57;1.60;;;;;;;;;;5016153;28;20449;-68
2022/10/07 04:37:21;;;;;;;5.40;3.20;;;14.90;99.90;;;;;;5016027;28;20410;-70
2022/10/07 04:39:47;;;;;;;3.70;2.50;;;14.90;99.90;;;;;;5015815;28;20744;-68
2022/10/07 04:43:17;;;;;;;1.53;1.43;;;14.90;99.90;;;;;;5016188;28;20628;-69
2022/10/07 04:44:58;;;;;;;1.47;1.40;;;14.80;99.90;;;;;;5015783;28;20207;-68
2022/10/07 04:47:24;;;;;;;0.90;0.90;;;14.90;99.90;;;;;;5015742;28;20448;-69
2022/10/07 04:49:52;;;;;;;1.37;1.23;;;14.90;99.90;;;;;;5015933;28;20207;-69
2022/10/07 04:52:19;;;;;;;3.10;1.43;;;14.80;99.90;;;;;;5015293;28;20174;-70
2022/10/07 04:54:45;;;;;;;1.47;1.37;;;14.80;99.90;;;;;;5014497;28;20420;-69
2022/10/07 04:57:12;;;;;;;4.90;2.73;;;14.80;99.90;;;;;;5015610;28;20498;-70
2022/10/07 04:59:38;;;;;;;1.23;1.17;;;14.80;99.90;;;;;;5015475;28;20173;-68
2022/10/07 05:02:03;;;;;;;1.20;1.10;;;14.80;99.90;;;;;;5015585;28;20783;-71
2022/10/07 05:04:29;;;;;;;0.80;0.70;;;14.80;99.90;;;;;;5015666;28;20491;-70
2022/10/07 05:06:55;;;;;;;1.93;1.00;;;14.80;99.90;;;;;;5015400;28;20580;-69
2022/10/07 05:09:20;;;;;;;1.10;1.10;;;14.80;99.90;;;;;;5015350;28;20205;-69
2022/10/07 05:11:47;;;;;;;0.90;0.90;;;14.80;99.90;;;;;;5015474;28;20171;-68
2022/10/07 05:14:13;;;;;;;1.47;1.40;;;14.90;99.90;;;;;;5015462;28;20167;-68
2022/10/07 05:16:39;;;;;;;1.87;1.77;;;14.90;99.90;;;;;;5015348;28;20426;-72
2022/10/07 05:19:04;;;;;;;1.33;1.23;;;14.80;99.90;;;;;;5015049;28;20498;-69
2022/10/07 05:21:32;;;;;;;1.03;1.03;;;14.80;99.90;;;;;;5015411;28;20204;-71
2022/10/07 05:23:58;;;;;;;2.80;2.60;;;14.90;99.90;;;;;;5015376;28;20176;-69
2022/10/07 05:26:23;;;;;;;0.90;0.90;;;14.90;99.90;;;;;;5015000;28;20516;-67
2022/10/07 05:28:49;;;;;;;1.00;0.90;;;14.90;99.90;;;;;;5015045;28;20191;-69
2022/10/07 05:31:15;;;;;;;2.00;1.90;;;14.80;99.90;;;;;;5015145;28;20245;-69
2022/10/07 05:33:41;;;;;;;1.60;1.50;;;14.80;99.90;;;;;;5014943;28;20207;-71
2022/10/07 05:36:09;;;;;;;2.53;1.97;;;14.80;99.90;;;;;;5015092;28;20234;-68
2022/10/07 05:38:35;;;;;;;1.93;1.67;;;14.80;99.90;;;;;;5014992;28;20814;-71
2022/10/07 05:41:04;;;;;;;0.70;0.70;;;14.70;99.90;;;;;;5014785;28;20418;-69
2022/10/07 05:43:32;;;;;;;1.63;1.27;;;14.60;99.90;;;;;;5014829;28;20780;-71
2022/10/07 05:46:06;;;;;;;3.43;1.80;;;14.60;99.90;;;;;;5014745;28;20450;-68
2022/10/07 05:48:33;;;;;;;1.87;1.77;;;14.60;99.90;;;;;;5013404;28;20994;-70
2022/10/07 05:50:59;;;;;;;2.30;2.10;;;14.60;99.90;;;;;;5014593;28;20462;-69
2022/10/07 05:53:27;;;;;;;3.10;1.47;;;14.60;99.90;;;;;;5014738;28;20402;-71
2022/10/07 05:55:52;;;;;;;1.43;1.33;;;14.60;99.90;;;;;;5014647;28;20838;-68
2022/10/07 05:58:19;;;;;;;3.93;1.20;;;14.70;99.90;;;;;;5014521;28;20505;-69
2022/10/07 06:00:58;;;;;;;1.50;1.40;;;14.70;99.90;;;;;;5014340;28;20176;-69
2022/10/07 06:03:25;;;;;;;1.43;1.43;;;14.70;99.90;;;;;;5014659;28;20545;-71
2022/10/07 06:05:52;;;;;;;1.20;1.10;;;14.70;99.90;;;;;;5014369;28;20433;-70
2022/10/07 06:08:19;;;;;;;2.20;1.70;;;14.70;99.90;;;;;;5014299;28;20446;-68
2022/10/07 06:13:30;;;;;;;2.30;2.10;;;14.70;99.90;;;;;;5014568;28;20397;-71
2022/10/07 06:16:00;;;;;;;2.60;2.40;;;14.60;99.90;;;;;;5014184;28;20426;-71
2022/10/07 06:18:26;;;;;;;1.50;0.90;;;14.50;99.90;;;;;;5014415;28;20446;-71
2022/10/07 06:20:56;;;;;;;1.60;1.50;;;14.60;99.90;;;;;;5014134;28;20440;-68
2022/10/07 06:23:22;;;;;;;3.10;2.40;;;14.70;99.90;;;;;;5014296;28;20182;-69
2022/10/07 06:26:02;;;;;;;1.57;1.40;;;14.70;99.90;;;;;;5013949;28;20441;-69
2022/10/07 06:28:33;;;;;;;1.40;1.30;;;14.90;99.90;;;;;;5014296;28;20450;-68
2022/10/07 06:31:09;;;;;;;4.53;2.43;;;15.00;99.90;;;;;;5013975;28;20405;-68
2022/10/07 06:33:35;;;;;;;1.50;1.43;;;15.00;99.90;;;;;;5014081;28;20734;-69
2022/10/07 06:36:03;;;;;;;1.43;1.13;;;15.00;99.90;;;;;;5013988;28;20431;-69
2022/10/07 06:38:28;;;;;;;1.77;1.67;;;14.90;99.90;;;;;;5013861;28;20823;-68
2022/10/07 06:40:58;;;;;;;1.80;1.27;;;15.00;99.90;;;;;;5013803;28;20487;-71
2022/10/07 06:43:28;;;;;;;1.03;1.00;;;15.00;99.90;;;;;;5013977;28;20171;-68
2022/10/07 06:46:05;;;;;;;2.13;1.73;;;15.10;99.90;;;;;;5013870;28;20453;-70
2022/10/07 06:48:33;;;;;;;1.10;1.10;;;15.10;99.90;;;;;;5013733;28;20469;-68
2022/10/07 06:51:03;;;;;;;3.20;1.43;;;15.20;99.90;;;;;;5013658;28;20402;-71
2022/10/07 06:53:29;;;;;;;1.80;1.70;;;15.20;99.90;;;;;;5014158;28;20430;-68
2022/10/07 06:55:58;;;;;;;1.37;1.27;;;15.30;99.90;;;;;;5013761;28;20437;-71
2022/10/07 06:58:24;;;;;;;2.97;2.47;;;15.40;99.90;;;;;;5013723;28;20777;-71
2022/10/07 07:00:54;;;;;;;1.20;1.13;;;15.40;99.90;;;;;;5013465;28;20420;-71
2022/10/07 07:03:20;;;;;;;2.17;2.03;;;15.40;99.90;;;;;;5013907;28;20410;-68
2022/10/07 07:05:46;;;;;;;1.73;1.03;;;15.50;99.90;;;;;;5013746;28;20430;-67
2022/10/07 07:08:15;;;;;;;2.23;1.90;;;15.50;99.90;;;;;;5013763;28;20455;-69
2022/10/07 07:10:43;;;;;;;0.80;0.80;;;15.60;99.90;;;;;;5013597;28;20397;-69
2022/10/07 07:13:09;;;;;;;1.30;1.23;;;15.60;99.90;;;;;;5013773;28;20884;-68
2022/10/07 07:15:35;;;;;;;1.93;1.57;;;15.70;99.90;;;;;;5015363;28;20433;-71
2022/10/07 07:18:02;;;;;;;2.70;2.50;;;15.80;99.90;;;;;;5017950;28;20434;-71
2022/10/07 07:20:34;;;;;;;2.97;2.00;;;15.90;99.90;;;;;;5017366;28;20466;-69
2022/10/07 07:23:09;;;;;;;2.03;1.93;;;15.90;99.90;;;;;;5017688;28;20866;-70
2022/10/07 07:25:37;;;;;;;2.70;2.30;;;16.10;99.90;;;;;;5017495;28;20472;-71
2022/10/07 07:28:03;;;;;;;1.93;1.20;;;16.20;99.90;;;;;;5017220;28;20556;-71
2022/10/07 07:30:29;;;;;;;2.00;1.90;;;16.40;99.90;;;;;;5017108;28;20406;-68
2022/10/07 07:32:56;;;;;;;2.10;1.40;;;16.50;99.90;;;;;;5017308;28;20409;-70
2022/10/07 07:35:23;;;;;;;2.03;1.40;;;16.60;99.90;;;;;;5017122;28;20491;-69
2022/10/07 07:37:49;;;;;;;1.00;1.00;;;16.50;99.70;;;;;;5017186;28;20402;-71
2022/10/07 07:40:16;;;;;;;1.83;1.50;;;16.30;99.90;;;;;;5016910;28;20769;-71
2022/10/07 07:42:42;;;;;;;1.70;1.33;;;16.20;99.90;;;;;;5017209;28;20168;-70
2022/10/07 07:45:08;;;;;;;2.67;1.57;;;16.00;99.90;;;;;;5017139;28;20425;-70
2022/10/07 07:47:34;;;;;;;1.63;1.53;;;16.10;99.80;;;;;;5016803;28;20245;-71
2022/10/07 07:50:01;;;;;;;0.90;0.90;;;16.20;99.80;;;;;;5016766;28;20898;-68
2022/10/07 07:52:27;;;;;;;1.07;0.90;;;16.30;99.60;;;;;;5017012;28;20398;-71
2022/10/07 07:54:56;;;;;;;1.50;1.40;;;16.40;99.50;;;;;;5015766;28;20465;-67
2022/10/07 07:57:23;;;;;;;1.30;1.20;;;16.30;99.50;;;;;;5015425;28;20932;-70
2022/10/07 07:59:49;;;;;;;6.10;2.30;;;16.40;99.70;;;;;;5016615;28;20810;-70
2022/10/07 08:02:14;;;;;;;1.63;1.60;;;16.40;99.40;;;;;;5017035;28;20410;-70
2022/10/07 08:04:40;;;;;;;1.23;0.97;;;16.50;99.40;;;;;;5016717;28;20177;-68
2022/10/07 08:07:06;;;;;;;0.80;0.80;;;16.70;99.50;;;;;;5016629;28;20283;-71
2022/10/07 08:09:32;;;;;;;0.80;0.80;;;16.80;98.80;;;;;;5016429;28;20664;-70
2022/10/07 08:11:57;;;;;;;1.50;1.40;;;16.80;98.80;;;;;;5016688;28;20409;-71
2022/10/07 08:14:23;;;;;;;1.13;1.13;;;16.90;98.50;;;;;;5016682;28;20528;-69
2022/10/07 08:16:50;;;;;;;2.67;2.10;;;17.00;98.40;;;;;;5016426;28;20202;-68
2022/10/07 08:19:16;;;;;;;1.77;1.67;;;16.90;98.70;;;;;;5016304;28;20175;-69
2022/10/07 08:21:42;;;;;;;2.73;1.50;;;16.90;98.60;;;;;;5016532;28;20468;-69
2022/10/07 08:24:11;;;;;;;1.53;1.50;;;16.90;98.40;;;;;;5016489;28;20496;-68
2022/10/07 08:26:37;;;;;;;1.97;1.60;;;17.00;98.60;;;;;;5014954;28;20187;-71
2022/10/07 08:29:03;;;;;;;1.53;1.43;;;17.10;98.40;;;;;;5016363;28;20450;-68
2022/10/07 08:31:30;;;;;;;0.73;0.73;;;17.10;98.30;;;;;;5016193;28;20406;-70
2022/10/07 08:34:00;;;;;;;1.10;1.00;;;17.00;98.30;;;;;;5016387;28;20457;-70
2022/10/07 08:36:27;;;;;;;0.90;0.90;;;17.00;98.50;;;;;;5016067;28;20982;-68
2022/10/07 08:38:53;;;;;;;2.10;1.47;;;17.00;98.30;;;;;;5015833;28;20472;-71
2022/10/07 08:41:27;;;;;;;0.70;0.70;;;17.30;98.50;;;;;;5016170;28;20423;-69
2022/10/07 08:43:53;;;;;;;1.70;0.93;;;17.60;98.20;;;;;;5016219;28;20923;-69
2022/10/07 08:46:28;;;;;;;1.60;1.50;;;18.00;97.80;;;;;;5015708;28;20463;-71
2022/10/07 08:49:10;;;;;;;2.43;1.70;;;18.20;97.60;;;;;;5015919;28;20445;-68
2022/10/07 08:51:58;;;;;;;2.03;1.93;;;18.50;96.80;;;;;;5016008;28;20433;-70
2022/10/07 08:54:29;;;;;;;1.17;1.17;;;18.80;96.80;;;;;;5014547;28;20429;-70
2022/10/07 08:57:03;;;;;;;1.53;1.03;;;19.20;96.40;;;;;;5015736;28;20943;-69
2022/10/07 08:59:34;;;;;;;1.37;0.80;;;19.40;94.20;;;;;;5015606;28;20433;-69
2022/10/07 09:02:15;;;;;;;1.43;1.00;;;19.50;94.10;;;;;;5016073;28;20427;-71
2022/10/07 09:05:05;;;;;;;1.70;1.60;;;19.50;93.80;;;;;;5014412;28;20422;-69
2022/10/07 09:07:33;;;;;;;0.77;0.77;;;19.50;93.50;;;;;;5015640;28;20391;-68
2022/10/07 09:10:07;;;;;;;1.13;0.93;;;19.70;93.70;;;;;;5015151;28;21000;-71
2022/10/07 09:12:48;;;;;;;1.37;0.80;;;19.80;93.10;;;;;;5015574;28;20497;-69
2022/10/07 09:15:22;;;;;;;1.03;0.90;;;20.60;95.30;;;;;;5015495;28;20409;-71
2022/10/07 09:17:55;;;;;;;1.20;1.00;;;20.40;93.50;;;;;;5015439;28;20397;-71
2022/10/07 09:20:27;;;;;;;0.63;0.63;;;20.60;93.10;;;;;;5015194;28;20398;-71
2022/10/07 09:22:56;;;;;;;0.80;0.80;;;20.80;91.90;;;;;;5015638;28;20491;-72
2022/10/07 09:25:27;;;;;;;0.93;0.70;;;20.90;91.40;;;;;;5015132;28;20433;-68
2022/10/07 09:27:53;;;;;;;1.30;1.20;;;21.20;91.40;;;;;;5015187;28;20516;-69
2022/10/07 09:30:20;;;;;;;0.80;0.80;;;21.40;91.50;;;;;;5013707;28;20469;-71
2022/10/07 09:32:49;;;;;;;1.60;1.33;;;22.20;90.60;;;;;;5015247;28;20380;-71
2022/10/07 09:35:17;;;;;;;0.80;0.80;;;23.20;87.30;;;;;;5015125;28;20407;-70
2022/10/07 09:37:59;;;;;;;2.10;1.00;;;24.60;82.90;;;;;;5014832;28;20405;-72
2022/10/07 09:43:24;;;;;;;1.90;0.80;;;27.20;71.90;;;;;;5015048;28;20433;-72
2022/10/07 09:45:50;;;;;;;0.80;0.80;;;27.40;68.00;;;;;;5014592;28;20946;-72
2022/10/07 09:48:20;;;;;;;1.10;0.80;;;27.90;65.80;;;;;;5014706;28;20493;-72
2022/10/07 09:50:46;;;;;;;0.83;0.83;;;28.40;64.10;;;;;;5014595;28;20440;-70
2022/10/07 09:53:23;;;;;;;0.70;0.70;;;28.80;59.90;;;;;;5013545;28;20413;-71
2022/10/07 09:55:51;;;;;;;0.73;0.73;;;29.00;59.60;;;;;;5014668;28;20433;-72
2022/10/07 09:58:29;;;;;;;1.33;1.17;;;29.40;59.30;;;;;;5014534;28;20482;-72
2022/10/07 10:00:57;;;;;;;0.90;0.80;;;29.70;57.70;;;;;;5014484;28;20395;-72
2022/10/07 10:03:34;;;;;;;2.43;1.40;;;29.20;56.50;;;;;;5014575;28;20406;-70
2022/10/07 10:06:05;;;;;;;1.40;1.30;;;28.90;57.20;;;;;;5014416;28;20452;-70
2022/10/07 10:08:35;;;;;;;1.50;1.03;;;28.80;57.20;;;;;;5014283;28;20438;-71
2022/10/07 10:11:04;;;;;;;0.77;0.67;;;28.40;56.60;;;;;;5014250;28;20403;-71
2022/10/07 10:13:36;;;;;;;1.03;0.60;;;28.10;57.80;;;;;;5014392;28;20456;-70
2022/10/07 10:16:04;;;;;;;0.60;0.60;;;28.10;57.60;;;;;;5014221;28;20418;-71
2022/10/07 10:18:40;;;;;;;0.80;0.80;;;27.90;57.10;;;;;;5014222;28;20413;-71
2022/10/07 10:21:34;;;;;;;1.00;0.90;;;27.00;59.30;;;;;;5013974;28;20892;-72
2022/10/07 10:24:05;;;;;;;0.90;0.90;;;26.80;58.90;;;;;;5010380;28;20751;-68
2022/10/07 10:26:49;;;;;;;1.10;1.00;;;26.20;61.00;;;;;;5014221;28;20461;-71
2022/10/07 10:29:43;;;;;;;0.40;0.40;;;25.90;62.00;;;;;;5013917;28;20476;-71
2022/10/07 10:32:42;;;;;;;0.60;0.60;;;25.70;62.30;;;;;;5014057;28;20369;-70
2022/10/07 10:35:20;;;;;;;1.03;0.90;;;25.50;64.40;;;;;;5014076;28;20402;-72
2022/10/07 10:38:17;;;;;;;1.50;1.10;;;25.30;64.80;;;;;;5013917;28;20734;-69
2022/10/07 10:40:48;;;;;;;0.50;0.50;;;25.10;67.40;;;;;;5013840;28;20490;-70
2022/10/07 10:43:23;;;;;;;0.80;0.80;;;24.80;65.10;;;;;;5013980;28;21025;-68
2022/10/07 10:46:07;;;;;;;1.00;0.83;;;24.60;66.90;;;;;;5013701;28;20421;-69
2022/10/07 10:48:53;;;;;;;1.47;0.87;;;24.40;67.30;;;;;;5013649;28;20528;-72
2022/10/07 10:51:43;;;;;;;0.80;0.80;;;24.10;67.60;;;;;;5013528;28;20369;-71
2022/10/07 10:54:17;;;;;;;1.10;1.00;;;24.10;69.30;;;;;;5014036;28;20390;-72
2022/10/07 10:56:46;;;;;;;0.73;0.50;;;24.00;70.00;;;;;;5013854;28;20432;-69
2022/10/07 10:59:27;;;;;;;1.00;1.00;;;23.70;70.40;;;;;;5013778;28;20437;-71
2022/10/07 11:02:15;;;;;;;1.40;1.30;;;23.30;71.70;;;;;;5013877;28;20728;-72
2022/10/07 11:04:50;;;;;;;0.70;0.70;;;23.00;72.50;;;;;;5013843;28;20844;-70
2022/10/07 11:07:30;;;;;;;1.37;0.60;;;22.40;74.50;;;;;;5012340;28;20874;-71
2022/10/07 11:10:19;;;;;;;1.13;1.03;;;22.00;74.70;;;;;;5013493;28;20858;-70
2022/10/07 11:12:53;;;;;;;0.60;0.50;;;22.00;76.30;;;;;;5013748;28;20432;-70
2022/10/07 11:15:25;;;;;;;0.90;0.70;;;22.20;77.90;;;;;;5013696;28;20427;-69
2022/10/07 11:17:54;;;;;;;0.83;0.83;;;22.30;75.90;;;;;;5012356;28;20391;-71
2022/10/07 11:20:36;;;;;;;1.33;1.10;;;22.40;77.60;;;;;;5013384;28;20412;-71
2022/10/07 11:23:27;;;;;;;0.63;0.63;;;22.50;75.80;;;;;;5013858;28;20408;-70
2022/10/07 11:26:01;;;;;;;0.83;0.83;;;22.50;76.90;;;;;;5013118;28;20468;-72
2022/10/07 11:28:29;;;;;;;0.70;0.70;;;22.20;78.80;;;;;;5013538;28;20438;-69
2022/10/07 11:31:26;;;;;;;1.07;0.90;;;22.20;79.70;;;;;;5013360;28;20768;-71
2022/10/07 11:34:16;;;;;;;0.50;0.50;;;22.10;77.70;;;;;;5013501;28;20432;-69
2022/10/07 11:37:07;;;;;;;0.83;0.83;;;22.00;78.20;;;;;;5013275;28;20462;-71
2022/10/07 11:39:37;;;;;;;0.73;0.53;;;21.90;77.60;;;;;;5013357;28;20420;-68
2022/10/07 11:42:11;;;;;;;0.50;0.50;;;21.70;78.60;;;;;;5013463;28;20406;-71
2022/10/07 11:44:56;;;;;;;0.90;0.90;;;21.70;80.40;;;;;;5013287;28;20784;-71
2022/10/07 11:47:38;;;;;;;1.33;1.33;;;21.70;82.00;;;;;;5013046;28;20449;-71
2022/10/07 11:50:30;;;;;;;0.70;0.70;;;21.60;80.20;;;;;;5013091;28;20459;-69
2022/10/07 11:53:03;;;;;;;0.63;0.63;;;21.50;79.60;;;;;;5011083;28;20425;-72
2022/10/07 11:55:33;;;;;;;0.60;0.60;;;21.40;79.30;;;;;;5013124;28;20472;-69
2022/10/07 11:58:05;;;;;;;0.50;0.50;;;21.50;80.00;;;;;;5013471;28;20476;-69
2022/10/07 12:00:36;;;;;;;0.97;0.50;;;21.60;81.10;;;;;;5013242;28;20782;-70
2022/10/07 12:03:30;;;;;;;0.43;0.43;;;21.90;80.30;;;;;;5016934;28;20857;-72
2022/10/07 12:06:05;;;;;;;1.10;0.97;;;22.20;80.00;;;;;;5012572;28;20443;-72
2022/10/07 12:08:37;;;;;;;0.70;0.70;;;22.30;80.50;;;;;;5016679;28;20451;-71
2022/10/07 12:11:11;;;;;;;0.80;0.80;;;22.10;77.90;;;;;;5016583;28;20408;-72
2022/10/07 12:13:39;;;;;;;0.53;0.53;;;21.50;77.40;;;;;;5016598;28;20393;-70
2022/10/07 12:16:23;;;;;;;0.60;0.60;;;21.20;79.70;;;;;;5016309;28;20433;-69
2022/10/07 12:19:07;;;;;;;0.40;0.40;;;20.90;82.00;;;;;;5016354;28;20496;-68
2022/10/07 12:22:10;;;;;;;0.77;0.70;;;20.70;83.40;;;;;;5016467;28;20409;-70
2022/10/07 12:24:36;;;;;;;0.70;0.70;;;20.80;84.80;;;;;;4995437;28;20423;-71
2022/10/07 12:27:17;;;;;;;0.83;0.83;;;21.10;84.40;;;;;;5016185;28;20434;-69
2022/10/07 12:30:02;;;;;;;1.33;0.87;;;21.30;88.90;;;;;;5016119;28;20452;-71
2022/10/07 12:32:43;;;;;;;0.93;0.60;;;21.30;82.70;;;;;;5016431;28;20407;-70
2022/10/07 12:35:33;;;;;;;0.50;0.40;;;21.00;88.30;;;;;;5016468;28;20406;-72
2022/10/07 12:38:13;;;;;;;0.60;0.60;;;21.10;83.50;;;;;;5016037;28;20498;-71
2022/10/07 12:40:41;;;;;;;0.40;0.40;;;21.00;82.30;;;;;;5015859;28;20407;-69
2022/10/07 12:43:20;;;;;;;0.50;0.50;;;20.90;87.50;;;;;;5014754;28;20407;-71
2022/10/07 12:45:46;;;;;;;0.63;0.63;;;20.70;89.50;;;;;;5015764;28;20424;-69
2022/10/07 12:48:19;;;;;;;0.57;0.50;;;20.70;88.60;;;;;;5016037;28;20418;-71
2022/10/07 12:50:48;;;;;;;0.90;0.70;;;20.60;85.30;;;;;;5015924;28;20435;-71
2022/10/07 12:53:15;;;;;;;2.50;0.73;;;20.60;86.00;;;;;;5015666;28;20408;-70
2022/10/07 12:55:47;;;;;;;0.50;0.50;;;20.50;89.30;;;;;;5015668;28;20426;-72
2022/10/07 13:01:05;;;;;;;0.40;0.40;;;20.30;89.70;;;;;;5015703;28;20397;-71
2022/10/07 13:03:47;;;;;;;0.70;0.70;;;20.10;91.10;;;;;;5015731;28;20402;-72
2022/10/07 13:06:21;;;;;;;0.60;0.60;;;19.70;91.30;;;;;;5015494;28;20425;-69
2022/10/07 13:09:08;;;;;;;0.50;0.50;;;19.40;93.00;;;;;;5015620;28;20471;-69
2022/10/07 13:11:52;;;;;;;0.90;0.90;;;19.20;93.20;;;;;;5015682;28;20421;-70
2022/10/07 13:14:41;;;;;;;0.60;0.60;;;19.10;89.10;;;;;;5014940;28;20886;-71
2022/10/07 13:17:38;;;;;;;0.50;0.50;;;19.10;89.60;;;;;;5014038;28;20505;-70
2022/10/07 13:20:40;;;;;;;0.50;0.50;;;19.10;90.00;;;;;;5015141;28;20437;-69
2022/10/07 13:23:17;;;;;;;0.73;0.73;;;19.00;91.50;;;;;;5015457;28;20402;-71